Time;durP1;ratioP1;P1;durP2;ratioP2;P2;SDS_P1;SDS_P2;PMS_P1;PMS_P2;Temp;Humidity;BMP_temperature;BMP_pressure;BME280_temperature;BME280_humidity;BME280_pressure;Samples;Min_cycle;Max_cycle;Signal;HPM_P1;HPM_P2
2023/08/10 00:00:58;;;;;;;9.70;6.83;;;;;;;;;;5016479;28;20465;-43
2023/08/10 00:03:27;;;;;;;9.10;8.13;;;;;;;;;;5016721;28;20875;-42
2023/08/10 00:05:55;;;;;;;8.80;7.57;;;;;;;;;;5016799;28;20460;-41
2023/08/10 00:08:22;;;;;;;13.57;7.80;;;;;;;;;;5016783;28;20477;-42
2023/08/10 00:10:50;;;;;;;12.07;7.50;;;;;;;;;;5016162;28;20485;-41
2023/08/10 00:13:18;;;;;;;10.30;8.23;;;;;;;;;;5015859;28;20441;-44
2023/08/10 00:15:47;;;;;;;7.77;6.70;;;;;;;;;;5016589;28;20544;-42
2023/08/10 00:18:15;;;;;;;10.23;7.07;;;;;;;;;;5016406;28;20521;-44
2023/08/10 00:20:42;;;;;;;10.50;7.07;;;;;;;;;;5015651;28;20475;-43
2023/08/10 00:23:11;;;;;;;11.53;8.50;;;;;;;;;;5015857;28;20445;-42
2023/08/10 00:25:39;;;;;;;11.53;7.90;;;;;;;;;;5016142;28;20476;-43
2023/08/10 00:28:06;;;;;;;8.20;7.60;;;;;;;;;;5016511;28;20487;-42
2023/08/10 00:30:34;;;;;;;8.47;7.77;;;;;;;;;;5015536;28;21031;-42
2023/08/10 00:33:03;;;;;;;8.60;7.80;;;;;;;;;;5015943;28;20469;-42
2023/08/10 00:35:31;;;;;;;18.27;9.40;;;;;;;;;;5016656;28;20453;-42
2023/08/10 00:37:58;;;;;;;12.83;8.87;;;;;;;;;;5016000;28;20518;-43
2023/08/10 00:40:26;;;;;;;14.00;9.47;;;;;;;;;;5015016;28;20471;-42
2023/08/10 00:42:54;;;;;;;10.70;8.90;;;;;;;;;;5015264;28;20433;-41
2023/08/10 00:45:21;;;;;;;13.50;8.90;;;;;;;;;;5015561;28;20515;-42
2023/08/10 00:47:52;;;;;;;10.30;7.93;;;;;;;;;;5015453;28;20477;-43
2023/08/10 00:50:21;;;;;;;8.73;8.03;;;;;;;;;;5015021;28;20465;-43
2023/08/10 00:52:48;;;;;;;10.70;8.20;;;;;;;;;;5015217;28;20444;-42
2023/08/10 00:55:16;;;;;;;8.43;7.33;;;;;;;;;;5015827;28;20461;-43
2023/08/10 00:57:44;;;;;;;9.37;8.20;;;;;;;;;;5015328;28;20480;-42
2023/08/10 01:00:12;;;;;;;12.57;8.27;;;;;;;;;;5014703;28;20519;-42
2023/08/10 01:02:40;;;;;;;16.70;8.40;;;;;;;;;;5015574;28;20433;-42
2023/08/10 01:05:10;;;;;;;10.60;8.23;;;;;;;;;;5015512;28;20440;-42
2023/08/10 01:07:45;;;;;;;15.73;8.80;;;;;;;;;;5015656;28;20519;-42
2023/08/10 01:10:20;;;;;;;9.60;7.80;;;;;;;;;;5015435;28;20871;-41
2023/08/10 01:12:50;;;;;;;8.63;7.80;;;;;;;;;;5015460;28;20527;-46
2023/08/10 01:15:20;;;;;;;8.40;7.67;;;;;;;;;;5015564;28;20488;-44
2023/08/10 01:17:49;;;;;;;13.20;8.20;;;;;;;;;;5015764;28;20429;-41
2023/08/10 01:20:19;;;;;;;10.00;7.67;;;;;;;;;;5014900;28;20469;-42
2023/08/10 01:22:51;;;;;;;8.90;7.60;;;;;;;;;;5015370;28;20844;-45
2023/08/10 01:25:21;;;;;;;10.07;8.10;;;;;;;;;;5014965;28;20453;-44
2023/08/10 01:27:48;;;;;;;8.07;7.50;;;;;;;;;;5015024;28;20535;-41
2023/08/10 01:30:16;;;;;;;17.90;8.00;;;;;;;;;;5013879;28;20467;-42
2023/08/10 01:32:44;;;;;;;8.33;7.53;;;;;;;;;;5014291;28;20468;-42
2023/08/10 01:35:11;;;;;;;8.33;7.53;;;;;;;;;;5014160;28;20468;-42
2023/08/10 01:37:39;;;;;;;12.20;8.00;;;;;;;;;;5014744;28;20445;-43
2023/08/10 01:40:09;;;;;;;15.47;9.23;;;;;;;;;;5014148;28;20461;-43
2023/08/10 01:42:38;;;;;;;8.57;7.10;;;;;;;;;;5013968;28;20896;-41
2023/08/10 01:45:07;;;;;;;9.80;7.70;;;;;;;;;;5014347;28;20869;-45
2023/08/10 01:47:36;;;;;;;10.93;7.70;;;;;;;;;;5014905;28;20473;-42
2023/08/10 01:50:06;;;;;;;9.47;7.30;;;;;;;;;;5014049;28;20515;-42
2023/08/10 01:52:35;;;;;;;9.97;7.83;;;;;;;;;;5014231;28;20437;-46
2023/08/10 01:55:03;;;;;;;11.77;8.53;;;;;;;;;;5014456;28;20429;-41
2023/08/10 01:57:31;;;;;;;10.10;8.43;;;;;;;;;;5014680;28;20432;-42
2023/08/10 02:00:00;;;;;;;14.23;10.00;;;;;;;;;;5014167;28;20460;-42
2023/08/10 02:02:27;;;;;;;10.20;8.50;;;;;;;;;;5014633;28;20468;-42
2023/08/10 02:04:55;;;;;;;9.30;8.50;;;;;;;;;;5014167;28;20433;-43
2023/08/10 02:07:22;;;;;;;9.67;7.60;;;;;;;;;;5014387;28;20480;-43
2023/08/10 02:09:50;;;;;;;15.63;8.03;;;;;;;;;;5014113;28;20460;-44
2023/08/10 02:12:17;;;;;;;12.10;8.47;;;;;;;;;;5014526;28;20443;-43
2023/08/10 02:14:45;;;;;;;9.40;8.40;;;;;;;;;;5018178;28;20467;-45
2023/08/10 02:17:13;;;;;;;8.60;7.80;;;;;;;;;;5018512;28;20468;-43
2023/08/10 02:19:41;;;;;;;8.43;7.77;;;;;;;;;;5017937;28;20547;-47
2023/08/10 02:22:09;;;;;;;9.23;8.10;;;;;;;;;;5018271;28;20452;-48
2023/08/10 02:24:36;;;;;;;11.63;7.53;;;;;;;;;;5018720;28;20453;-42
2023/08/10 02:27:04;;;;;;;8.87;7.97;;;;;;;;;;5018603;28;20499;-41
2023/08/10 02:29:32;;;;;;;7.57;7.00;;;;;;;;;;5018264;28;20510;-42
2023/08/10 02:32:00;;;;;;;15.40;8.13;;;;;;;;;;5017900;28;20443;-42
2023/08/10 02:34:29;;;;;;;8.83;7.70;;;;;;;;;;5018318;28;20460;-42
2023/08/10 02:36:57;;;;;;;8.80;7.93;;;;;;;;;;5018664;28;20492;-42
2023/08/10 02:39:24;;;;;;;9.80;8.80;;;;;;;;;;5018241;28;20461;-42
2023/08/10 02:41:52;;;;;;;9.73;8.80;;;;;;;;;;5018222;28;20437;-42
2023/08/10 02:44:20;;;;;;;9.07;8.23;;;;;;;;;;5018133;28;20445;-41
2023/08/10 02:46:48;;;;;;;9.27;8.37;;;;;;;;;;5018131;28;20511;-44
2023/08/10 02:49:16;;;;;;;9.10;7.97;;;;;;;;;;5017733;28;20536;-42
2023/08/10 02:51:45;;;;;;;8.97;8.13;;;;;;;;;;5017974;28;20532;-41
2023/08/10 02:54:12;;;;;;;8.67;7.80;;;;;;;;;;5017775;28;20456;-42
2023/08/10 02:56:40;;;;;;;11.27;8.90;;;;;;;;;;5017510;28;20993;-44
2023/08/10 02:59:07;;;;;;;10.40;9.43;;;;;;;;;;5017260;28;20440;-44
2023/08/10 03:01:35;;;;;;;11.50;10.00;;;;;;;;;;5017065;28;20428;-45
2023/08/10 03:04:03;;;;;;;10.80;9.73;;;;;;;;;;5017521;28;20445;-42
2023/08/10 03:06:31;;;;;;;11.70;10.80;;;;;;;;;;5017369;28;20453;-42
2023/08/10 03:08:59;;;;;;;11.20;10.10;;;;;;;;;;5016909;28;20551;-46
2023/08/10 03:11:27;;;;;;;11.37;10.10;;;;;;;;;;5017231;28;20477;-45
2023/08/10 03:13:54;;;;;;;10.57;9.60;;;;;;;;;;5017287;28;20437;-43
2023/08/10 03:16:22;;;;;;;9.20;8.70;;;;;;;;;;5017077;28;20521;-43
2023/08/10 03:18:50;;;;;;;10.70;8.90;;;;;;;;;;5017265;28;20433;-41
2023/08/10 03:21:18;;;;;;;10.57;9.53;;;;;;;;;;5016949;28;20520;-43
2023/08/10 03:23:46;;;;;;;10.20;9.23;;;;;;;;;;5017275;28;20516;-43
2023/08/10 03:26:15;;;;;;;13.50;9.07;;;;;;;;;;5017191;28;20457;-41
2023/08/10 03:28:42;;;;;;;11.70;9.70;;;;;;;;;;5017535;28;20477;-42
2023/08/10 03:31:11;;;;;;;12.80;9.73;;;;;;;;;;5016975;28;20881;-42
2023/08/10 03:33:39;;;;;;;12.83;9.20;;;;;;;;;;5017504;28;20873;-42
2023/08/10 03:36:06;;;;;;;10.50;8.47;;;;;;;;;;5017766;28;20959;-45
2023/08/10 03:38:34;;;;;;;12.87;11.10;;;;;;;;;;5016850;28;20471;-43
2023/08/10 03:41:02;;;;;;;10.87;9.73;;;;;;;;;;5014665;28;20472;-42
2023/08/10 03:43:30;;;;;;;15.27;9.53;;;;;;;;;;5015046;28;20475;-41
2023/08/10 03:45:58;;;;;;;10.20;9.37;;;;;;;;;;5016449;28;20457;-48
2023/08/10 03:48:25;;;;;;;9.83;8.83;;;;;;;;;;5016648;28;20781;-41
2023/08/10 03:50:53;;;;;;;10.57;9.70;;;;;;;;;;5016599;28;20452;-41
2023/08/10 03:53:20;;;;;;;12.30;11.27;;;;;;;;;;5017116;28;20437;-41
2023/08/10 03:55:48;;;;;;;9.90;9.20;;;;;;;;;;5017183;28;20484;-45
2023/08/10 03:58:15;;;;;;;10.57;9.60;;;;;;;;;;5017315;28;20475;-41
2023/08/10 04:00:45;;;;;;;16.10;10.77;;;;;;;;;;5017454;28;20475;-42
2023/08/10 04:03:13;;;;;;;10.70;10.10;;;;;;;;;;5023571;28;20425;-43
2023/08/10 04:05:41;;;;;;;14.60;10.33;;;;;;;;;;5022931;28;20449;-43
2023/08/10 04:08:09;;;;;;;12.63;11.53;;;;;;;;;;5023305;28;20440;-47
2023/08/10 04:10:37;;;;;;;11.20;10.30;;;;;;;;;;5022698;28;20465;-47
2023/08/10 04:13:04;;;;;;;10.83;9.83;;;;;;;;;;5023476;28;20472;-45
2023/08/10 04:15:32;;;;;;;11.57;10.10;;;;;;;;;;5021824;28;20465;-44
2023/08/10 04:18:02;;;;;;;12.13;11.13;;;;;;;;;;5022653;28;20499;-44
2023/08/10 04:20:30;;;;;;;12.57;11.27;;;;;;;;;;5021790;28;20468;-42
2023/08/10 04:22:59;;;;;;;13.40;12.20;;;;;;;;;;5021636;28;20452;-41
2023/08/10 04:25:27;;;;;;;12.17;11.37;;;;;;;;;;5021737;28;20520;-45
2023/08/10 04:27:55;;;;;;;14.27;12.77;;;;;;;;;;5021479;28;20869;-43
2023/08/10 04:30:28;;;;;;;13.07;12.13;;;;;;;;;;5021466;28;20462;-45
2023/08/10 04:32:56;;;;;;;13.80;12.73;;;;;;;;;;5021598;28;20476;-45
2023/08/10 04:35:26;;;;;;;13.57;12.43;;;;;;;;;;5020933;28;20507;-43
2023/08/10 04:37:53;;;;;;;13.40;12.20;;;;;;;;;;5022677;28;20560;-45
2023/08/10 04:40:21;;;;;;;12.57;11.43;;;;;;;;;;5021431;28;20515;-44
2023/08/10 04:42:50;;;;;;;12.77;11.80;;;;;;;;;;5022368;28;20432;-42
2023/08/10 04:45:17;;;;;;;13.77;12.77;;;;;;;;;;5022272;28;20862;-44
2023/08/10 04:47:46;;;;;;;13.73;12.37;;;;;;;;;;5021964;28;20432;-44
2023/08/10 04:50:13;;;;;;;15.13;13.20;;;;;;;;;;5022042;28;20480;-43
2023/08/10 04:52:42;;;;;;;17.47;13.67;;;;;;;;;;5021787;28;20436;-41
2023/08/10 04:55:11;;;;;;;14.63;13.50;;;;;;;;;;5022165;28;20479;-42
2023/08/10 04:57:38;;;;;;;15.73;14.13;;;;;;;;;;5024050;28;20963;-41
2023/08/10 05:00:10;;;;;;;14.07;13.13;;;;;;;;;;5024293;28;20465;-41
2023/08/10 05:02:38;;;;;;;14.40;13.17;;;;;;;;;;5024113;28;20468;-42
2023/08/10 05:05:07;;;;;;;14.30;13.10;;;;;;;;;;5024163;28;20457;-42
2023/08/10 05:07:34;;;;;;;13.80;12.77;;;;;;;;;;5023662;28;20451;-41
2023/08/10 05:10:04;;;;;;;13.77;12.50;;;;;;;;;;5023226;28;20461;-42
2023/08/10 05:12:32;;;;;;;13.53;12.43;;;;;;;;;;5022676;28;20425;-43
2023/08/10 05:14:59;;;;;;;12.97;11.90;;;;;;;;;;5023939;28;20491;-43
2023/08/10 05:17:27;;;;;;;13.03;11.70;;;;;;;;;;5023812;28;20877;-43
2023/08/10 05:19:55;;;;;;;12.53;11.60;;;;;;;;;;5023147;28;20461;-43
2023/08/10 05:22:22;;;;;;;12.40;11.27;;;;;;;;;;5023884;28;20452;-44
2023/08/10 05:24:50;;;;;;;11.80;10.90;;;;;;;;;;5023495;28;20437;-45
2023/08/10 05:27:19;;;;;;;12.73;10.77;;;;;;;;;;5023550;28;20510;-44
2023/08/10 05:29:46;;;;;;;11.03;10.23;;;;;;;;;;5022865;28;20469;-42
2023/08/10 05:32:14;;;;;;;14.03;9.43;;;;;;;;;;5024210;28;20444;-41
2023/08/10 05:34:44;;;;;;;14.50;9.33;;;;;;;;;;5023878;28;20448;-43
2023/08/10 05:37:12;;;;;;;12.97;10.67;;;;;;;;;;5024558;28;20518;-44
2023/08/10 05:39:40;;;;;;;10.40;9.60;;;;;;;;;;5023796;28;20523;-41
2023/08/10 05:42:08;;;;;;;9.30;8.60;;;;;;;;;;5024153;28;20456;-41
2023/08/10 05:44:37;;;;;;;9.60;8.73;;;;;;;;;;5024585;28;20437;-41
2023/08/10 05:47:05;;;;;;;12.70;10.80;;;;;;;;;;5024371;28;20511;-42
2023/08/10 05:49:32;;;;;;;8.70;8.30;;;;;;;;;;5023199;28;20999;-45
2023/08/10 05:52:00;;;;;;;10.87;9.90;;;;;;;;;;5022519;28;20433;-41
2023/08/10 05:54:27;;;;;;;12.20;9.70;;;;;;;;;;5023317;28;20492;-41
2023/08/10 05:56:55;;;;;;;9.87;9.20;;;;;;;;;;5023465;28;20449;-47
2023/08/10 05:59:25;;;;;;;10.10;8.60;;;;;;;;;;5023875;28;20488;-45
2023/08/10 06:01:54;;;;;;;9.57;8.80;;;;;;;;;;5023111;28;20439;-45
2023/08/10 06:04:22;;;;;;;9.80;8.40;;;;;;;;;;5024285;28;20445;-43
2023/08/10 06:06:49;;;;;;;14.00;8.40;;;;;;;;;;5023780;28;20997;-41
2023/08/10 06:09:17;;;;;;;14.17;7.83;;;;;;;;;;5023425;28;20473;-43
2023/08/10 06:11:45;;;;;;;8.27;7.40;;;;;;;;;;5024156;28;20570;-43
2023/08/10 06:14:15;;;;;;;10.63;7.60;;;;;;;;;;5025032;28;20417;-47
2023/08/10 06:16:43;;;;;;;7.40;6.80;;;;;;;;;;5024565;28;20495;-44
2023/08/10 06:19:12;;;;;;;10.97;6.73;;;;;;;;;;5023413;28;21866;-42
2023/08/10 06:21:40;;;;;;;10.03;6.20;;;;;;;;;;5023749;28;20460;-42
2023/08/10 06:24:09;;;;;;;8.63;5.87;;;;;;;;;;5024169;28;20437;-43
2023/08/10 06:26:37;;;;;;;6.80;5.40;;;;;;;;;;5025045;28;20539;-41
2023/08/10 06:29:04;;;;;;;10.33;5.80;;;;;;;;;;5023964;28;20528;-42
2023/08/10 06:31:32;;;;;;;12.17;6.27;;;;;;;;;;5024775;28;20503;-42
2023/08/10 06:34:00;;;;;;;7.50;6.10;;;;;;;;;;5025452;28;20438;-43
2023/08/10 06:36:29;;;;;;;7.20;5.90;;;;;;;;;;5024564;28;20461;-41
2023/08/10 06:38:57;;;;;;;6.73;5.50;;;;;;;;;;5024454;28;20529;-41
2023/08/10 06:41:24;;;;;;;7.83;5.20;;;;;;;;;;5024975;28;20435;-40
2023/08/10 06:43:52;;;;;;;8.60;6.00;;;;;;;;;;5024701;28;20428;-42
2023/08/10 06:46:19;;;;;;;5.63;5.13;;;;;;;;;;5024500;28;20892;-41
2023/08/10 06:48:48;;;;;;;6.30;5.67;;;;;;;;;;5023790;28;20436;-42
2023/08/10 06:51:16;;;;;;;6.23;5.73;;;;;;;;;;5023895;28;20476;-44
2023/08/10 06:53:45;;;;;;;8.67;6.30;;;;;;;;;;5025239;28;20439;-42
2023/08/10 06:56:12;;;;;;;6.10;5.50;;;;;;;;;;5024624;28;20458;-41
2023/08/10 06:58:40;;;;;;;10.87;6.60;;;;;;;;;;5024140;28;20441;-42
2023/08/10 07:01:28;;;;;;;6.47;5.70;;;;;;;;;;5028007;28;20436;-41
2023/08/10 07:03:55;;;;;;;6.50;5.00;;;;;;;;;;5026167;28;20437;-44
2023/08/10 07:06:23;;;;;;;8.43;5.23;;;;;;;;;;5026344;28;20855;-45
2023/08/10 07:08:52;;;;;;;8.17;5.37;;;;;;;;;;5026856;28;20919;-45
2023/08/10 07:11:20;;;;;;;5.20;4.80;;;;;;;;;;5026348;28;20484;-44
2023/08/10 07:13:48;;;;;;;8.90;4.80;;;;;;;;;;5026329;28;20424;-43
2023/08/10 07:16:16;;;;;;;7.20;4.40;;;;;;;;;;5026823;28;20460;-42
2023/08/10 07:18:44;;;;;;;5.07;4.57;;;;;;;;;;5026895;28;20440;-43
2023/08/10 07:21:12;;;;;;;7.53;4.30;;;;;;;;;;5026671;28;20475;-43
2023/08/10 07:23:39;;;;;;;9.80;3.70;;;;;;;;;;5026673;28;20440;-44
2023/08/10 07:26:08;;;;;;;6.40;4.20;;;;;;;;;;5027249;28;20792;-43
2023/08/10 07:28:36;;;;;;;4.40;3.70;;;;;;;;;;5026536;28;20432;-41
2023/08/10 07:31:03;;;;;;;9.17;4.40;;;;;;;;;;5027092;28;20905;-42
2023/08/10 07:33:31;;;;;;;7.33;4.17;;;;;;;;;;5027180;28;20435;-43
2023/08/10 07:35:59;;;;;;;4.47;3.73;;;;;;;;;;5027503;28;20452;-42
2023/08/10 07:38:26;;;;;;;4.63;3.67;;;;;;;;;;5026299;28;20463;-42
2023/08/10 07:40:54;;;;;;;8.00;4.40;;;;;;;;;;5026695;28;20453;-43
2023/08/10 07:43:23;;;;;;;7.70;4.37;;;;;;;;;;5026115;28;20442;-43
2023/08/10 07:45:50;;;;;;;8.30;3.73;;;;;;;;;;5026978;28;20457;-41
2023/08/10 07:48:18;;;;;;;9.20;4.10;;;;;;;;;;5025974;28;20435;-45
2023/08/10 07:50:46;;;;;;;8.00;4.03;;;;;;;;;;5024857;28;20491;-43
2023/08/10 07:53:14;;;;;;;5.10;4.00;;;;;;;;;;5025904;28;20437;-44
2023/08/10 07:55:41;;;;;;;5.83;4.23;;;;;;;;;;5026077;28;20456;-46
2023/08/10 07:58:09;;;;;;;10.40;4.37;;;;;;;;;;5025691;28;20464;-41
2023/08/10 08:00:39;;;;;;;5.90;3.73;;;;;;;;;;5024409;28;20490;-43
2023/08/10 08:03:08;;;;;;;4.50;3.30;;;;;;;;;;5024410;28;20459;-45
2023/08/10 08:05:37;;;;;;;7.73;3.97;;;;;;;;;;5024653;28;20472;-42
2023/08/10 08:08:06;;;;;;;8.37;4.33;;;;;;;;;;5025330;28;20455;-44
2023/08/10 08:10:34;;;;;;;4.60;3.50;;;;;;;;;;5023511;28;20464;-41
2023/08/10 08:13:06;;;;;;;9.33;4.13;;;;;;;;;;5025443;28;20844;-45
2023/08/10 08:15:33;;;;;;;7.07;4.00;;;;;;;;;;5025027;28;20460;-43
2023/08/10 08:18:20;;;;;;;6.10;3.30;;;;;;;;;;5026116;28;20444;-43
2023/08/10 08:20:48;;;;;;;5.97;3.90;;;;;;;;;;5025449;28;21078;-43
2023/08/10 08:23:16;;;;;;;5.63;3.23;;;;;;;;;;5026020;28;20556;-44
2023/08/10 08:25:43;;;;;;;4.83;3.50;;;;;;;;;;5025993;28;20560;-41
2023/08/10 08:28:11;;;;;;;5.10;2.90;;;;;;;;;;5025873;28;20467;-43
2023/08/10 08:30:38;;;;;;;8.80;3.57;;;;;;;;;;5024576;28;20487;-45
2023/08/10 08:33:06;;;;;;;4.87;3.30;;;;;;;;;;5025955;28;20461;-41
2023/08/10 08:35:35;;;;;;;6.60;3.50;;;;;;;;;;5025403;28;20457;-42
2023/08/10 08:38:04;;;;;;;5.77;4.17;;;;;;;;;;5026007;28;20432;-41
2023/08/10 08:40:32;;;;;;;5.87;3.30;;;;;;;;;;5025294;28;20465;-42
2023/08/10 08:43:02;;;;;;;6.50;3.53;;;;;;;;;;5025343;28;20433;-43
2023/08/10 08:45:30;;;;;;;6.60;3.57;;;;;;;;;;5025967;28;20483;-44
2023/08/10 08:47:58;;;;;;;4.00;3.00;;;;;;;;;;5025759;28;20429;-42
2023/08/10 08:50:27;;;;;;;5.77;3.23;;;;;;;;;;5024687;28;20552;-43
2023/08/10 08:52:57;;;;;;;7.20;3.63;;;;;;;;;;5024024;28;20472;-44
2023/08/10 08:55:26;;;;;;;6.80;3.60;;;;;;;;;;5023355;28;20475;-42
2023/08/10 08:57:54;;;;;;;4.93;4.43;;;;;;;;;;5023134;28;20468;-43
2023/08/10 09:00:21;;;;;;;11.03;3.60;;;;;;;;;;5023280;28;21052;-42
2023/08/10 09:02:50;;;;;;;5.13;2.93;;;;;;;;;;5024195;28;20808;-43
2023/08/10 09:05:18;;;;;;;3.70;3.30;;;;;;;;;;5024855;28;20436;-46
2023/08/10 09:07:45;;;;;;;5.70;3.40;;;;;;;;;;5025137;28;20468;-44
2023/08/10 09:10:13;;;;;;;4.60;4.13;;;;;;;;;;5023411;28;20500;-42
2023/08/10 09:12:42;;;;;;;7.27;3.63;;;;;;;;;;5024205;28;20484;-44
2023/08/10 09:15:10;;;;;;;6.60;3.80;;;;;;;;;;5023117;28;20432;-43
2023/08/10 09:17:39;;;;;;;8.87;4.43;;;;;;;;;;5024014;28;20519;-45
2023/08/10 09:20:08;;;;;;;6.63;4.07;;;;;;;;;;5023444;28;20453;-46
2023/08/10 09:22:36;;;;;;;7.90;3.83;;;;;;;;;;5022017;28;20452;-45
2023/08/10 09:25:04;;;;;;;7.23;3.97;;;;;;;;;;5022501;28;20456;-45
2023/08/10 09:27:32;;;;;;;4.60;3.37;;;;;;;;;;5023120;28;20432;-42
2023/08/10 09:30:02;;;;;;;5.47;3.67;;;;;;;;;;5022718;28;20532;-43
2023/08/10 09:32:29;;;;;;;10.83;4.00;;;;;;;;;;5024758;28;20475;-44
2023/08/10 09:34:57;;;;;;;3.90;3.50;;;;;;;;;;5023249;28;20494;-42
2023/08/10 09:37:25;;;;;;;5.33;4.70;;;;;;;;;;5022626;28;20456;-42
2023/08/10 09:39:55;;;;;;;8.40;4.33;;;;;;;;;;5022055;28;20457;-44
2023/08/10 09:42:22;;;;;;;7.27;3.77;;;;;;;;;;5020612;28;20483;-43
2023/08/10 09:44:50;;;;;;;4.63;4.07;;;;;;;;;;5021124;28;20527;-43
2023/08/10 09:47:20;;;;;;;6.03;4.30;;;;;;;;;;5022252;28;20524;-42
2023/08/10 09:49:55;;;;;;;5.40;4.00;;;;;;;;;;5022136;28;20503;-41
2023/08/10 09:52:23;;;;;;;4.87;3.63;;;;;;;;;;5023599;28;20475;-42
2023/08/10 09:54:51;;;;;;;3.40;3.10;;;;;;;;;;5022373;28;20439;-42
2023/08/10 09:57:19;;;;;;;4.30;3.87;;;;;;;;;;5022086;28;20456;-45
2023/08/10 09:59:47;;;;;;;4.30;4.00;;;;;;;;;;5020960;28;20468;-42
2023/08/10 10:02:15;;;;;;;4.27;3.30;;;;;;;;;;5021046;28;20455;-42
2023/08/10 10:04:45;;;;;;;3.53;3.23;;;;;;;;;;5021393;28;20467;-47
2023/08/10 10:07:12;;;;;;;4.60;4.03;;;;;;;;;;5021708;28;20448;-43
2023/08/10 10:09:43;;;;;;;6.73;3.60;;;;;;;;;;5022243;28;20488;-43
2023/08/10 10:12:11;;;;;;;3.70;3.40;;;;;;;;;;5023287;28;20507;-44
2023/08/10 10:14:39;;;;;;;4.33;3.10;;;;;;;;;;5022172;28;20519;-45
2023/08/10 10:17:07;;;;;;;6.50;3.67;;;;;;;;;;5021213;28;20452;-43
2023/08/10 10:19:34;;;;;;;3.33;3.00;;;;;;;;;;5020998;28;20531;-42
2023/08/10 10:22:04;;;;;;;5.30;3.37;;;;;;;;;;5022060;28;20631;-44
2023/08/10 10:24:32;;;;;;;4.37;4.03;;;;;;;;;;5022353;28;20501;-43
2023/08/10 10:27:00;;;;;;;3.90;3.20;;;;;;;;;;5022129;28;20461;-42
2023/08/10 10:29:37;;;;;;;5.53;4.17;;;;;;;;;;5021074;28;20448;-42
2023/08/10 10:32:15;;;;;;;3.90;3.50;;;;;;;;;;5021941;28;20515;-43
2023/08/10 10:34:43;;;;;;;3.20;3.00;;;;;;;;;;5024372;28;20913;-43
2023/08/10 10:37:13;;;;;;;5.10;3.23;;;;;;;;;;5025901;28;20990;-44
2023/08/10 10:39:41;;;;;;;4.10;3.70;;;;;;;;;;5025557;28;20468;-48
2023/08/10 10:42:09;;;;;;;9.13;4.37;;;;;;;;;;5025519;28;20429;-42
2023/08/10 10:44:55;;;;;;;3.20;2.80;;;;;;;;;;5025740;28;20428;-42
2023/08/10 10:47:33;;;;;;;6.63;3.37;;;;;;;;;;5025959;28;20524;-44
2023/08/10 10:50:00;;;;;;;3.83;3.30;;;;;;;;;;5025329;28;20467;-46
2023/08/10 10:52:37;;;;;;;6.07;3.93;;;;;;;;;;5024117;28;20498;-43
2023/08/10 10:55:09;;;;;;;3.63;3.10;;;;;;;;;;5025065;28;20432;-43
2023/08/10 10:57:38;;;;;;;4.90;3.47;;;;;;;;;;5026002;28;20512;-45
2023/08/10 11:00:07;;;;;;;4.03;3.73;;;;;;;;;;5024788;28;20456;-42
2023/08/10 11:02:34;;;;;;;5.50;3.77;;;;;;;;;;5025325;28;20433;-45
2023/08/10 11:05:02;;;;;;;3.63;3.40;;;;;;;;;;5025422;28;20443;-42
2023/08/10 11:07:30;;;;;;;7.50;2.90;;;;;;;;;;5017912;28;20437;-42
2023/08/10 11:10:06;;;;;;;4.43;2.83;;;;;;;;;;5025571;28;20551;-42
2023/08/10 11:12:33;;;;;;;6.47;3.40;;;;;;;;;;5025116;28;20472;-44
2023/08/10 11:15:01;;;;;;;3.57;3.30;;;;;;;;;;5026104;28;20437;-44
2023/08/10 11:17:29;;;;;;;4.90;3.40;;;;;;;;;;5025899;28;20472;-42
2023/08/10 11:20:12;;;;;;;5.90;3.57;;;;;;;;;;5024949;28;20467;-45
2023/08/10 11:22:40;;;;;;;3.77;3.40;;;;;;;;;;5024830;28;20474;-43
2023/08/10 11:25:10;;;;;;;4.30;3.37;;;;;;;;;;5026033;28;20948;-44
2023/08/10 11:27:38;;;;;;;3.37;3.00;;;;;;;;;;5026183;28;20447;-42
2023/08/10 11:30:09;;;;;;;4.10;2.70;;;;;;;;;;5025078;28;20483;-43
2023/08/10 11:32:40;;;;;;;7.17;3.40;;;;;;;;;;5026154;28;20459;-46
2023/08/10 11:35:09;;;;;;;3.27;2.97;;;;;;;;;;5026315;28;20475;-42
2023/08/10 11:37:42;;;;;;;3.10;2.70;;;;;;;;;;5026222;28;20432;-45
2023/08/10 11:40:12;;;;;;;5.00;3.40;;;;;;;;;;5024959;28;20457;-44
2023/08/10 11:42:40;;;;;;;3.00;2.80;;;;;;;;;;5023595;28;20439;-43
2023/08/10 11:45:11;;;;;;;6.83;4.40;;;;;;;;;;5023172;28;20496;-45
2023/08/10 11:47:40;;;;;;;3.63;2.90;;;;;;;;;;5023541;28;20436;-43
2023/08/10 11:50:29;;;;;;;4.10;3.80;;;;;;;;;;5022424;28;20467;-46
2023/08/10 11:52:58;;;;;;;5.03;3.77;;;;;;;;;;5024066;28;20468;-45
2023/08/10 11:55:28;;;;;;;3.30;3.10;;;;;;;;;;5023422;28;20491;-44
2023/08/10 11:57:57;;;;;;;3.47;3.27;;;;;;;;;;5023660;28;20469;-44
2023/08/10 12:00:28;;;;;;;3.60;3.30;;;;;;;;;;5023991;28;20464;-42
2023/08/10 12:02:56;;;;;;;3.80;3.37;;;;;;;;;;5023550;28;20452;-43
2023/08/10 12:05:49;;;;;;;3.77;3.47;;;;;;;;;;5023842;28;20460;-44
2023/08/10 12:08:18;;;;;;;4.23;3.67;;;;;;;;;;5010811;28;20448;-44
2023/08/10 12:10:50;;;;;;;4.60;3.67;;;;;;;;;;5023535;28;20523;-46
2023/08/10 12:13:19;;;;;;;4.27;3.70;;;;;;;;;;5023062;28;20474;-43
2023/08/10 12:15:47;;;;;;;5.10;4.10;;;;;;;;;;5022385;28;20453;-42
2023/08/10 12:18:15;;;;;;;7.87;3.97;;;;;;;;;;5023690;28;20433;-43
2023/08/10 12:20:43;;;;;;;6.50;3.50;;;;;;;;;;5024941;28;20465;-44
2023/08/10 12:23:14;;;;;;;6.40;4.27;;;;;;;;;;5024210;28;20449;-43
2023/08/10 12:25:44;;;;;;;3.83;3.53;;;;;;;;;;5023947;28;20452;-43
2023/08/10 12:28:13;;;;;;;3.50;3.30;;;;;;;;;;5023748;28;20464;-43
2023/08/10 12:30:41;;;;;;;5.80;3.30;;;;;;;;;;5025235;28;20469;-42
2023/08/10 12:33:09;;;;;;;4.00;3.70;;;;;;;;;;5023373;28;20482;-44
2023/08/10 12:35:37;;;;;;;5.13;3.27;;;;;;;;;;5023748;28;20456;-43
2023/08/10 12:38:05;;;;;;;4.60;3.20;;;;;;;;;;5024165;28;20464;-43
2023/08/10 12:40:33;;;;;;;3.43;3.13;;;;;;;;;;5022914;28;20892;-45
2023/08/10 12:43:00;;;;;;;3.67;3.37;;;;;;;;;;5022506;28;20449;-44
2023/08/10 12:45:29;;;;;;;4.47;3.93;;;;;;;;;;5022106;28;20453;-45
2023/08/10 12:47:59;;;;;;;4.93;3.37;;;;;;;;;;5023094;28;20540;-43
2023/08/10 12:50:27;;;;;;;3.20;2.90;;;;;;;;;;5021911;28;20461;-43
2023/08/10 12:52:55;;;;;;;4.20;3.80;;;;;;;;;;5021987;28;20447;-46
2023/08/10 12:55:22;;;;;;;3.47;3.23;;;;;;;;;;5022326;28;20504;-43
2023/08/10 12:57:50;;;;;;;4.17;3.77;;;;;;;;;;5021633;28;20475;-43
2023/08/10 13:00:19;;;;;;;3.77;3.40;;;;;;;;;;5021390;28;20488;-48
2023/08/10 13:02:49;;;;;;;4.70;4.17;;;;;;;;;;5021814;28;20436;-46
2023/08/10 13:05:17;;;;;;;5.23;3.67;;;;;;;;;;5023075;28;20452;-43
2023/08/10 13:07:45;;;;;;;3.70;3.40;;;;;;;;;;5022342;28;20788;-44
2023/08/10 13:10:15;;;;;;;4.00;3.70;;;;;;;;;;5020896;28;20464;-46
2023/08/10 13:12:43;;;;;;;3.43;3.13;;;;;;;;;;5021435;28;20460;-45
2023/08/10 13:15:10;;;;;;;5.13;3.73;;;;;;;;;;5022507;28;20994;-45
2023/08/10 13:17:38;;;;;;;4.23;3.10;;;;;;;;;;5022566;28;20439;-42
2023/08/10 13:20:08;;;;;;;4.50;3.10;;;;;;;;;;5023435;28;20487;-47
2023/08/10 13:22:36;;;;;;;3.90;3.53;;;;;;;;;;5023709;28;20468;-42
2023/08/10 13:25:05;;;;;;;3.57;3.27;;;;;;;;;;5024439;28;20487;-42
2023/08/10 13:27:33;;;;;;;3.40;3.20;;;;;;;;;;5023400;28;20428;-42
2023/08/10 13:30:01;;;;;;;3.67;3.30;;;;;;;;;;5023085;28;20460;-41
2023/08/10 13:32:29;;;;;;;6.33;4.20;;;;;;;;;;5023560;28;20491;-44
2023/08/10 13:34:56;;;;;;;3.93;3.60;;;;;;;;;;5022293;28;20563;-44
2023/08/10 13:37:25;;;;;;;6.80;3.53;;;;;;;;;;5022494;28;20521;-41
2023/08/10 13:39:53;;;;;;;5.17;3.63;;;;;;;;;;5022253;28;20522;-43
2023/08/10 13:42:20;;;;;;;4.47;4.07;;;;;;;;;;5023157;28;21014;-45
2023/08/10 13:44:48;;;;;;;3.37;3.10;;;;;;;;;;5022560;28;20436;-43
2023/08/10 13:47:15;;;;;;;3.20;3.00;;;;;;;;;;5022401;28;20786;-44
2023/08/10 13:49:44;;;;;;;4.63;3.97;;;;;;;;;;5021841;28;20511;-46
2023/08/10 13:52:22;;;;;;;4.23;3.90;;;;;;;;;;5021619;28;20507;-43
2023/08/10 13:54:52;;;;;;;4.27;4.07;;;;;;;;;;5023171;28;20500;-43
2023/08/10 13:57:19;;;;;;;4.17;3.87;;;;;;;;;;5022163;28;21032;-47
2023/08/10 13:59:47;;;;;;;4.07;3.47;;;;;;;;;;5021831;28;20475;-42
2023/08/10 14:02:15;;;;;;;3.67;3.40;;;;;;;;;;5022060;28;20436;-43
2023/08/10 14:04:43;;;;;;;4.50;3.93;;;;;;;;;;5022521;28;20437;-46
2023/08/10 14:07:12;;;;;;;9.20;3.70;;;;;;;;;;5023132;28;20448;-44
2023/08/10 14:09:40;;;;;;;3.73;3.40;;;;;;;;;;5020847;28;20466;-45
2023/08/10 14:12:09;;;;;;;3.47;3.17;;;;;;;;;;5022412;28;20500;-45
2023/08/10 14:14:37;;;;;;;3.90;3.50;;;;;;;;;;5022640;28;20468;-43
2023/08/10 14:17:05;;;;;;;6.37;3.30;;;;;;;;;;5022601;28;20456;-42
2023/08/10 14:19:33;;;;;;;3.50;3.20;;;;;;;;;;5022691;28;20492;-45
2023/08/10 14:22:01;;;;;;;5.53;3.50;;;;;;;;;;5022508;28;20440;-42
2023/08/10 14:24:28;;;;;;;4.17;3.60;;;;;;;;;;5022234;28;20578;-44
2023/08/10 14:26:56;;;;;;;3.63;3.40;;;;;;;;;;5022509;28;20498;-44
2023/08/10 14:29:25;;;;;;;4.00;3.70;;;;;;;;;;5021643;28;20547;-48
2023/08/10 14:31:52;;;;;;;3.97;3.57;;;;;;;;;;5022745;28;20467;-43
2023/08/10 14:34:20;;;;;;;4.17;3.97;;;;;;;;;;5022848;28;20468;-42
2023/08/10 14:36:48;;;;;;;5.20;4.20;;;;;;;;;;5022895;28;20453;-43
2023/08/10 14:39:17;;;;;;;4.13;3.87;;;;;;;;;;5021176;28;20464;-45
2023/08/10 14:41:49;;;;;;;5.63;4.00;;;;;;;;;;5021702;28;20518;-42
2023/08/10 14:44:17;;;;;;;3.87;3.60;;;;;;;;;;5021879;28;20535;-45
2023/08/10 14:46:46;;;;;;;5.80;3.17;;;;;;;;;;5020605;28;20453;-42